KPIR/PIR METAR and TAF weather

Enter ICAO airport designator
Station Type Date Time Source
KPIR METAR 2019/02/16 06:53 UTC NOAA

KPIR 160653Z AUTO 12011KT 10SM BKN018 BKN022 OVC050 M14/M16 A3001 RMK AO2 SLP200 T11391161


Station Type Date Time Source
KPIR Decoded METAR 2019/02/16 06:53 UTC NOAA

PIERRE REGIONAL AIRPORT, SD, United States (KPIR) 44-23N 100-17W 526M
Feb 16, 2019 - 01:53 AM EST / 2019.02.16 0653 UTC
Wind: from the ESE (120 degrees) at 13 MPH (11 KT):0
Visibility: 10 mile(s):0
Sky conditions: overcast
Temperature: 7.0 F (-13.9 C)
Windchill: -9 F (-23 C):2
Dew Point: 3.0 F (-16.1 C)
Relative Humidity: 83%
Pressure (altimeter): 30.01 in. Hg (1016 hPa)
ob: KPIR 160653Z AUTO 12011KT 10SM BKN018 BKN022 OVC050 M14/M16 A3001 RMK AO2 SLP200 T11391161
cycle: 7

Station Type Date Time Source
KPIR TAF 2019/02/16 07:09 UTC NOAA

TAF
AMD KPIR 160706Z 1607/1706 12011KT P6SM BKN018 BKN022 OVC050
FM161500 12013G20KT P6SM VCSH OVC028
FM161800 13014G21KT 2SM -SN OVC020
FM162100 12013KT 1 1/2SM -SN OVC015


Example: see airport list